Time;durP1;ratioP1;P1;durP2;ratioP2;P2;SDS_P1;SDS_P2;PMS_P1;PMS_P2;Temp;Humidity;BMP_temperature;BMP_pressure;BME280_temperature;BME280_humidity;BME280_pressure;Samples;Min_cycle;Max_cycle;Signal;HPM_P1;HPM_P2
2022/04/24 00:02:19;;;;;;;45.37;27.67;;;15.50;38.20;;;;;;5105423;28;20671;-71
2022/04/24 00:04:45;;;;;;;42.87;26.43;;;15.20;38.80;;;;;;5096910;28;20174;-71
2022/04/24 00:07:10;;;;;;;43.57;26.70;;;15.00;39.30;;;;;;5096331;28;20204;-71
2022/04/24 00:09:37;;;;;;;39.20;25.50;;;14.80;40.00;;;;;;5109633;28;20194;-70
2022/04/24 00:12:07;;;;;;;43.20;27.60;;;14.80;41.60;;;;;;5100064;28;20180;-71
2022/04/24 00:14:32;;;;;;;40.73;26.07;;;14.90;41.30;;;;;;5103081;28;20423;-72
2022/04/24 00:16:58;;;;;;;41.87;25.87;;;14.90;39.70;;;;;;5094364;28;20447;-71
2022/04/24 00:19:24;;;;;;;44.10;25.80;;;14.80;40.80;;;;;;5101486;28;20181;-70
2022/04/24 00:21:50;;;;;;;44.10;26.70;;;15.10;39.60;;;;;;5104950;28;20203;-70
2022/04/24 00:24:16;;;;;;;41.30;26.10;;;15.20;40.00;;;;;;5102633;28;20253;-70
2022/04/24 00:26:41;;;;;;;48.57;29.50;;;15.50;39.10;;;;;;5098001;28;20797;-70
2022/04/24 00:29:07;;;;;;;45.33;28.97;;;15.90;37.50;;;;;;5105676;28;20221;-71
2022/04/24 00:31:33;;;;;;;45.90;28.20;;;16.00;37.30;;;;;;5101564;28;20445;-71
2022/04/24 00:33:59;;;;;;;43.47;28.60;;;15.90;37.80;;;;;;5100001;28;20823;-71
2022/04/24 00:36:24;;;;;;;42.73;26.63;;;15.90;37.80;;;;;;5099949;28;20182;-70
2022/04/24 00:38:50;;;;;;;42.33;27.70;;;16.10;36.50;;;;;;5104693;28;20200;-70
2022/04/24 00:41:16;;;;;;;45.50;27.87;;;16.10;37.10;;;;;;5099425;28;20218;-70
2022/04/24 00:43:48;;;;;;;42.40;29.07;;;16.00;37.60;;;;;;5104562;28;20170;-71
2022/04/24 00:46:28;;;;;;;43.20;27.07;;;14.60;40.20;;;;;;5098996;28;20196;-70
2022/04/24 00:48:54;;;;;;;42.77;26.97;;;14.20;43.20;;;;;;5100039;28;20455;-71
2022/04/24 00:51:19;;;;;;;41.27;27.03;;;14.20;43.40;;;;;;5104497;28;20468;-70
2022/04/24 00:53:45;;;;;;;41.53;27.20;;;14.00;43.70;;;;;;5104646;28;20178;-70
2022/04/24 00:56:10;;;;;;;45.97;29.40;;;14.40;44.20;;;;;;5102110;28;20181;-70
2022/04/24 00:58:36;;;;;;;43.33;27.60;;;14.70;42.20;;;;;;5098630;28;20578;-71
2022/04/24 01:01:02;;;;;;;46.80;28.60;;;15.00;40.90;;;;;;5099429;28;20680;-71
2022/04/24 01:03:28;;;;;;;44.40;30.20;;;15.10;40.30;;;;;;5104143;28;20176;-71
2022/04/24 01:05:55;;;;;;;43.90;25.47;;;15.60;38.00;;;;;;5096129;28;20178;-73
2022/04/24 01:08:21;;;;;;;37.47;25.20;;;15.70;37.60;;;;;;5092012;28;20515;-71
2022/04/24 01:10:46;;;;;;;41.03;26.77;;;15.40;37.60;;;;;;5094021;28;20514;-71
2022/04/24 01:13:12;;;;;;;41.83;25.53;;;15.30;38.40;;;;;;5094237;28;20174;-71
2022/04/24 01:15:37;;;;;;;44.93;26.63;;;15.30;38.30;;;;;;5093411;28;20169;-71
2022/04/24 01:18:03;;;;;;;45.03;27.90;;;15.20;38.20;;;;;;5095714;28;20348;-71
2022/04/24 01:20:29;;;;;;;49.50;26.33;;;15.20;39.50;;;;;;5089751;28;20647;-71
2022/04/24 01:22:55;;;;;;;41.37;26.83;;;15.20;39.30;;;;;;5088891;28;20474;-71
2022/04/24 01:25:20;;;;;;;41.77;27.40;;;15.30;38.40;;;;;;5093888;28;20263;-72
2022/04/24 01:27:46;;;;;;;52.50;26.70;;;15.30;38.20;;;;;;5090386;28;20216;-71
2022/04/24 01:30:12;;;;;;;41.50;26.77;;;15.30;38.40;;;;;;5098768;28;20233;-71
2022/04/24 01:32:39;;;;;;;40.70;26.30;;;15.50;38.00;;;;;;5099738;28;20722;-71
2022/04/24 01:35:05;;;;;;;45.53;26.97;;;15.60;38.40;;;;;;5100897;28;20181;-71
2022/04/24 01:37:31;;;;;;;45.53;27.67;;;15.40;39.50;;;;;;5099732;28;20458;-72
2022/04/24 01:39:57;;;;;;;44.93;26.97;;;15.30;39.90;;;;;;5089382;28;20530;-72
2022/04/24 01:42:23;;;;;;;43.27;28.17;;;15.50;38.60;;;;;;5091660;28;20549;-71
2022/04/24 01:44:48;;;;;;;42.17;25.70;;;15.40;39.90;;;;;;5092335;28;20435;-71
2022/04/24 01:47:14;;;;;;;46.33;28.50;;;15.70;39.10;;;;;;5097044;28;20510;-71
2022/04/24 01:49:39;;;;;;;42.37;27.00;;;15.50;41.00;;;;;;5089400;28;20213;-71
2022/04/24 01:52:09;;;;;;;43.63;26.33;;;15.20;41.30;;;;;;5102101;28;20208;-72
2022/04/24 01:54:35;;;;;;;46.00;28.53;;;15.20;43.00;;;;;;5101914;28;20237;-71
2022/04/24 01:57:01;;;;;;;50.67;30.23;;;15.10;43.70;;;;;;5095319;28;20519;-71
2022/04/24 01:59:26;;;;;;;54.40;30.83;;;15.20;43.90;;;;;;5106233;28;20185;-71
2022/04/24 02:01:52;;;;;;;51.53;31.23;;;15.40;45.10;;;;;;5106154;28;20447;-71
2022/04/24 02:04:23;;;;;;;55.00;31.03;;;15.50;46.40;;;;;;5097969;28;20229;-72
2022/04/24 02:06:51;;;;;;;52.00;31.30;;;15.50;45.00;;;;;;5091264;28;20222;-71
2022/04/24 02:09:17;;;;;;;54.90;31.57;;;15.10;45.90;;;;;;5091211;28;20975;-71
2022/04/24 02:11:42;;;;;;;51.67;31.50;;;14.80;49.80;;;;;;5091942;28;20435;-71
2022/04/24 02:14:08;;;;;;;51.33;32.30;;;14.90;50.70;;;;;;5093998;28;20180;-71
2022/04/24 02:16:34;;;;;;;61.20;31.70;;;14.90;51.10;;;;;;5093066;28;20647;-72
2022/04/24 02:19:00;;;;;;;51.37;31.17;;;15.10;50.40;;;;;;5094559;28;20455;-71
2022/04/24 02:21:27;;;;;;;55.13;32.97;;;15.00;50.90;;;;;;5089063;28;20668;-73
2022/04/24 02:23:53;;;;;;;64.13;35.30;;;15.10;52.40;;;;;;5086834;28;20172;-72
2022/04/24 02:26:19;;;;;;;62.17;34.10;;;15.20;50.90;;;;;;5098420;28;20426;-71
2022/04/24 02:28:44;;;;;;;61.67;33.87;;;15.20;51.50;;;;;;5093532;28;20209;-72
2022/04/24 02:31:10;;;;;;;56.70;33.00;;;15.20;51.10;;;;;;5097782;28;20178;-71
2022/04/24 02:33:36;;;;;;;55.80;32.67;;;15.20;50.30;;;;;;5099489;28;20176;-71
2022/04/24 02:36:02;;;;;;;56.47;33.00;;;15.10;51.60;;;;;;5099385;28;20567;-71
2022/04/24 02:38:29;;;;;;;76.37;33.90;;;15.10;51.70;;;;;;5101253;28;20449;-72
2022/04/24 02:40:54;;;;;;;61.07;35.63;;;15.00;53.20;;;;;;5095285;28;20953;-72
2022/04/24 02:43:20;;;;;;;56.57;31.77;;;15.00;53.20;;;;;;5099694;28;20440;-71
2022/04/24 02:45:46;;;;;;;62.37;34.40;;;15.00;53.40;;;;;;5092490;28;20296;-71
2022/04/24 02:48:12;;;;;;;68.33;34.17;;;15.20;53.00;;;;;;5102178;28;20691;-71
2022/04/24 02:50:39;;;;;;;61.07;34.93;;;15.30;52.30;;;;;;5103949;28;20430;-71
2022/04/24 02:53:06;;;;;;;60.33;33.37;;;15.30;52.60;;;;;;5092902;28;20438;-71
2022/04/24 02:55:32;;;;;;;62.20;36.13;;;15.20;52.50;;;;;;5104847;28;20426;-71
2022/04/24 02:57:57;;;;;;;60.93;36.00;;;15.20;53.40;;;;;;5103308;28;20447;-71
2022/04/24 03:00:25;;;;;;;62.60;35.33;;;15.20;52.50;;;;;;5104968;28;20453;-72
2022/04/24 03:02:52;;;;;;;69.10;37.23;;;15.30;51.80;;;;;;5101091;28;20582;-71
2022/04/24 03:05:22;;;;;;;64.53;36.40;;;15.30;51.20;;;;;;5104526;28;20920;-71
2022/04/24 03:07:48;;;;;;;66.47;36.00;;;15.50;49.80;;;;;;5095190;28;20472;-71
2022/04/24 03:10:15;;;;;;;61.07;33.90;;;15.40;51.30;;;;;;5095108;28;20467;-71
2022/04/24 03:12:41;;;;;;;71.90;37.03;;;15.30;52.00;;;;;;5094310;28;20425;-71
2022/04/24 03:15:09;;;;;;;72.00;34.67;;;15.10;53.30;;;;;;5096405;28;20469;-72
2022/04/24 03:17:35;;;;;;;65.93;36.73;;;15.00;54.40;;;;;;5096706;28;20984;-71
2022/04/24 03:20:03;;;;;;;65.63;37.83;;;15.00;54.60;;;;;;5098256;28;20489;-71
2022/04/24 03:22:30;;;;;;;68.83;36.13;;;15.10;56.00;;;;;;5097316;28;20475;-72
2022/04/24 03:24:57;;;;;;;65.27;35.13;;;15.20;55.70;;;;;;5095765;28;20925;-71
2022/04/24 03:27:23;;;;;;;64.57;35.83;;;15.20;55.00;;;;;;5138139;22;20532;-67
2022/04/24 03:29:49;;;;;;;68.40;37.40;;;17.40;57.60;;;;;;5127935;27;21050;-67
2022/04/24 03:32:14;;;;;;;72.03;36.10;;;15.00;55.80;;;;;;5123029;27;20483;-67
2022/04/24 03:34:40;;;;;;;56.43;32.67;;;15.10;55.80;;;;;;5130426;27;20192;-67
2022/04/24 03:37:06;;;;;;;63.30;35.70;;;14.30;60.10;;;;;;5125385;27;20188;-67
2022/04/24 03:39:32;;;;;;;63.93;33.90;;;14.20;63.70;;;;;;5131883;27;20244;-67
2022/04/24 03:41:58;;;;;;;61.40;35.67;;;14.40;62.80;;;;;;5133584;27;20199;-67
2022/04/24 03:44:23;;;;;;;59.73;33.23;;;14.00;63.50;;;;;;5134581;27;20455;-67
2022/04/24 03:46:49;;;;;;;60.60;33.50;;;13.50;67.20;;;;;;5134039;27;20454;-67
2022/04/24 03:49:16;;;;;;;58.67;35.07;;;13.40;69.10;;;;;;5130898;27;20196;-67
2022/04/24 03:51:42;;;;;;;63.00;35.47;;;13.10;71.50;;;;;;5123944;27;20175;-67
2022/04/24 03:54:07;;;;;;;65.77;36.07;;;13.70;70.70;;;;;;5132131;27;20432;-67
2022/04/24 03:56:34;;;;;;;66.30;37.20;;;14.00;65.00;;;;;;5134500;27;20998;-67
2022/04/24 03:58:59;;;;;;;63.90;37.40;;;14.00;64.30;;;;;;5133720;27;20290;-67
2022/04/24 04:01:25;;;;;;;78.13;41.27;;;13.90;64.00;;;;;;5134285;27;20543;-67
2022/04/24 04:03:51;;;;;;;91.30;39.03;;;13.70;65.70;;;;;;5134073;27;20177;-67
2022/04/24 04:06:16;;;;;;;69.17;37.23;;;13.90;65.50;;;;;;5133790;27;20178;-67
2022/04/24 04:08:42;;;;;;;38.40;24.10;;;13.80;64.30;;;;;;5133211;27;21001;-67
2022/04/24 04:11:08;;;;;;;37.63;19.60;;;12.90;68.50;;;;;;5133914;27;20181;-68
2022/04/24 04:13:34;;;;;;;18.20;11.20;;;12.30;76.00;;;;;;5133867;27;20211;-69
2022/04/24 04:16:00;;;;;;;18.27;8.30;;;11.40;82.40;;;;;;5133077;27;20263;-69
2022/04/24 04:18:26;;;;;;;17.40;7.50;;;11.30;84.70;;;;;;5133093;27;20988;-69
2022/04/24 04:20:51;;;;;;;10.90;7.20;;;10.70;91.10;;;;;;5132041;27;20178;-69
2022/04/24 04:23:17;;;;;;;9.73;5.93;;;10.90;91.50;;;;;;5133890;27;20211;-70
2022/04/24 04:25:43;;;;;;;7.87;4.97;;;11.00;91.30;;;;;;5133499;27;20173;-70
2022/04/24 04:28:09;;;;;;;5.47;3.57;;;11.50;84.90;;;;;;5116858;27;20289;-70
2022/04/24 04:30:34;;;;;;;4.90;3.20;;;11.20;81.80;;;;;;5133007;27;20199;-71
2022/04/24 04:33:00;;;;;;;5.20;3.20;;;11.00;82.90;;;;;;5133814;27;20177;-70
2022/04/24 04:35:26;;;;;;;7.43;3.07;;;10.90;82.70;;;;;;5133056;27;20653;-70
2022/04/24 04:37:52;;;;;;;5.10;2.70;;;10.90;82.90;;;;;;5133087;27;20197;-71
2022/04/24 04:40:18;;;;;;;8.40;2.50;;;11.20;80.50;;;;;;5133551;27;20947;-70
2022/04/24 04:42:45;;;;;;;4.97;2.20;;;11.30;75.60;;;;;;5132766;27;20197;-70
2022/04/24 04:45:11;;;;;;;4.00;2.40;;;11.50;77.50;;;;;;5133559;27;20523;-71
2022/04/24 04:47:36;;;;;;;4.23;2.10;;;11.80;77.10;;;;;;5132805;27;20447;-71
2022/04/24 04:50:02;;;;;;;5.03;2.10;;;11.80;74.10;;;;;;5134462;27;20211;-71
2022/04/24 04:52:27;;;;;;;9.47;2.33;;;11.70;75.60;;;;;;5133299;27;20248;-71
2022/04/24 04:54:53;;;;;;;4.40;1.80;;;11.90;71.20;;;;;;5132725;27;20173;-70
2022/04/24 04:57:19;;;;;;;3.83;1.83;;;11.90;68.60;;;;;;5133735;27;20628;-70
2022/04/24 04:59:44;;;;;;;4.63;1.90;;;11.40;73.70;;;;;;5132192;27;20177;-70
2022/04/24 05:02:10;;;;;;;2.90;2.00;;;11.30;78.10;;;;;;5132759;27;20218;-70
2022/04/24 05:04:36;;;;;;;2.97;1.80;;;11.50;73.50;;;;;;5132509;27;20173;-70
2022/04/24 05:07:01;;;;;;;3.30;1.90;;;11.50;73.80;;;;;;5133426;27;20813;-70
2022/04/24 05:09:27;;;;;;;3.63;1.80;;;11.30;73.70;;;;;;5132145;27;20193;-70
2022/04/24 05:11:53;;;;;;;3.50;2.00;;;10.90;80.50;;;;;;5131929;27;20250;-70
2022/04/24 05:14:19;;;;;;;4.57;2.20;;;11.20;82.10;;;;;;5132101;27;20173;-71
2022/04/24 05:16:44;;;;;;;5.17;1.77;;;10.90;83.80;;;;;;5131832;27;20181;-71
2022/04/24 05:19:10;;;;;;;3.10;2.03;;;10.80;87.90;;;;;;5132709;27;20442;-70
2022/04/24 05:21:36;;;;;;;3.77;1.80;;;10.30;91.20;;;;;;5130927;27;20193;-70
2022/04/24 05:24:02;;;;;;;4.30;1.97;;;10.30;92.90;;;;;;5132037;27;20655;-70
2022/04/24 05:26:27;;;;;;;2.90;1.97;;;10.40;88.70;;;;;;5132181;27;20180;-70
2022/04/24 05:28:53;;;;;;;4.57;1.80;;;10.00;93.30;;;;;;5128802;27;20454;-71
2022/04/24 05:31:20;;;;;;;5.27;1.93;;;10.20;92.50;;;;;;5131585;27;20169;-71
2022/04/24 05:33:46;;;;;;;3.17;1.83;;;10.70;90.80;;;;;;5131203;27;20786;-70
2022/04/24 05:36:12;;;;;;;3.10;1.70;;;11.00;84.70;;;;;;5132723;27;20449;-70
2022/04/24 05:38:38;;;;;;;3.90;1.90;;;10.90;82.90;;;;;;5131571;27;20457;-70
2022/04/24 05:41:04;;;;;;;2.80;1.70;;;10.70;86.70;;;;;;5132105;27;20463;-71
2022/04/24 05:43:30;;;;;;;2.30;1.70;;;10.70;85.70;;;;;;5131711;27;20933;-71
2022/04/24 05:45:56;;;;;;;2.40;1.70;;;10.70;87.80;;;;;;5132521;27;20567;-70
2022/04/24 05:48:22;;;;;;;2.87;1.53;;;10.80;83.50;;;;;;5127988;27;20454;-70
2022/04/24 05:50:48;;;;;;;2.10;1.63;;;10.80;83.00;;;;;;5131627;27;21379;-70
2022/04/24 05:53:14;;;;;;;2.97;2.00;;;11.10;77.50;;;;;;5131817;27;20430;-70
2022/04/24 05:55:40;;;;;;;4.57;1.80;;;11.20;75.20;;;;;;5131279;27;20422;-70
2022/04/24 05:58:06;;;;;;;2.03;1.67;;;11.60;71.50;;;;;;5132029;27;20459;-71
2022/04/24 06:00:31;;;;;;;3.87;1.70;;;11.50;68.80;;;;;;5131443;27;20925;-70
2022/04/24 06:02:57;;;;;;;5.97;2.70;;;10.90;75.10;;;;;;5131285;27;20488;-71
2022/04/24 06:05:23;;;;;;;3.73;2.00;;;11.70;73.20;;;;;;5132126;27;20221;-70
2022/04/24 06:07:49;;;;;;;7.30;4.30;;;11.50;69.00;;;;;;5131257;27;20201;-70
2022/04/24 06:10:15;;;;;;;4.87;3.17;;;11.60;70.40;;;;;;5131780;27;20788;-71
2022/04/24 06:12:43;;;;;;;6.33;3.70;;;11.90;70.50;;;;;;5131167;27;20199;-70
2022/04/24 06:15:15;;;;;;;5.97;3.33;;;12.10;64.80;;;;;;5129891;27;20181;-70
2022/04/24 06:17:40;;;;;;;7.60;3.53;;;12.20;64.90;;;;;;5131954;27;20451;-70
2022/04/24 06:20:07;;;;;;;4.60;2.00;;;11.60;68.60;;;;;;5131788;27;20426;-70
2022/04/24 06:22:44;;;;;;;3.53;1.97;;;11.70;70.10;;;;;;5130596;27;20237;-69
2022/04/24 06:25:21;;;;;;;2.90;2.10;;;11.60;65.00;;;;;;5130216;27;20787;-70
2022/04/24 06:27:48;;;;;;;3.20;1.57;;;11.20;70.40;;;;;;5131561;27;20632;-70
2022/04/24 06:30:16;;;;;;;2.57;1.70;;;11.20;72.10;;;;;;5131684;27;20425;-70
2022/04/24 06:32:43;;;;;;;2.23;1.50;;;11.30;72.20;;;;;;5131031;27;20427;-70
2022/04/24 06:35:11;;;;;;;2.60;1.50;;;11.20;71.20;;;;;;5130486;27;20521;-69
2022/04/24 06:37:43;;;;;;;3.07;1.70;;;11.10;71.10;;;;;;5131227;27;20453;-69
2022/04/24 06:40:10;;;;;;;2.73;1.80;;;10.80;74.60;;;;;;5131596;28;20434;-69
2022/04/24 06:42:54;;;;;;;2.27;1.67;;;10.80;80.90;;;;;;5130341;27;21039;-69
2022/04/24 06:45:25;;;;;;;2.40;1.83;;;10.60;77.20;;;;;;5130663;28;20433;-69
2022/04/24 06:47:52;;;;;;;4.17;1.93;;;10.70;79.20;;;;;;5130986;28;20943;-70
2022/04/24 06:50:18;;;;;;;3.03;1.80;;;11.30;73.60;;;;;;5131229;28;20422;-69
2022/04/24 06:52:44;;;;;;;3.90;1.67;;;11.60;68.50;;;;;;5131585;28;20422;-69
2022/04/24 06:55:09;;;;;;;2.10;1.60;;;11.20;70.50;;;;;;5130795;28;20235;-69
2022/04/24 06:57:35;;;;;;;3.20;1.73;;;11.40;69.80;;;;;;5130814;28;20727;-69
2022/04/24 07:00:01;;;;;;;3.90;2.30;;;11.60;65.40;;;;;;5131425;28;20181;-69
2022/04/24 07:02:26;;;;;;;4.83;2.23;;;11.50;69.60;;;;;;5130809;28;20201;-69
2022/04/24 07:04:52;;;;;;;3.60;2.20;;;11.50;69.60;;;;;;5130818;28;20855;-69
2022/04/24 07:07:18;;;;;;;4.93;1.80;;;11.90;64.10;;;;;;5130681;28;20177;-69
2022/04/24 07:09:43;;;;;;;2.37;1.70;;;11.70;65.60;;;;;;5130552;28;20255;-69
2022/04/24 07:12:09;;;;;;;2.97;1.77;;;12.00;65.40;;;;;;5130970;28;20552;-69
2022/04/24 07:14:35;;;;;;;2.87;1.60;;;11.70;62.00;;;;;;5130696;28;20623;-70
2022/04/24 07:17:00;;;;;;;4.30;1.60;;;11.30;69.30;;;;;;5131277;28;20437;-72
2022/04/24 07:19:26;;;;;;;1.90;1.53;;;11.60;66.40;;;;;;5130650;28;20277;-69
2022/04/24 07:21:52;;;;;;;3.10;1.80;;;11.80;63.60;;;;;;5131210;28;20261;-70
2022/04/24 07:24:17;;;;;;;3.50;1.80;;;11.80;65.60;;;;;;5131127;28;20222;-70
2022/04/24 07:26:43;;;;;;;3.40;1.70;;;11.60;70.00;;;;;;5131134;28;20174;-69
2022/04/24 07:29:08;;;;;;;5.00;2.40;;;11.70;69.80;;;;;;5130900;28;20216;-69
2022/04/24 07:31:34;;;;;;;3.50;1.80;;;12.10;64.60;;;;;;5130533;28;20315;-70
2022/04/24 07:34:00;;;;;;;3.07;2.00;;;12.50;62.60;;;;;;5131228;28;20178;-70
2022/04/24 07:36:25;;;;;;;6.53;1.97;;;12.50;60.70;;;;;;5130696;28;20180;-70
2022/04/24 07:38:51;;;;;;;3.00;1.77;;;12.60;60.10;;;;;;5130641;28;20205;-70
2022/04/24 07:41:17;;;;;;;2.20;1.50;;;12.60;61.30;;;;;;5116071;28;20205;-69
2022/04/24 07:43:48;;;;;;;2.30;1.70;;;12.80;59.90;;;;;;5130018;28;20196;-70
2022/04/24 07:46:14;;;;;;;3.13;1.70;;;12.80;60.20;;;;;;5130428;28;20430;-69
2022/04/24 07:48:40;;;;;;;4.37;1.80;;;12.80;59.50;;;;;;5129726;28;20839;-69
2022/04/24 07:51:05;;;;;;;3.67;2.10;;;12.80;62.50;;;;;;5131038;28;20423;-70
2022/04/24 07:53:31;;;;;;;3.63;2.17;;;12.90;61.50;;;;;;5116258;28;20219;-69
2022/04/24 07:55:57;;;;;;;4.17;2.17;;;13.00;61.60;;;;;;5134539;27;20181;-69
2022/04/24 07:58:22;;;;;;;3.83;2.37;;;13.30;57.30;;;;;;5132508;27;20611;-69
2022/04/24 08:00:48;;;;;;;6.00;2.70;;;13.10;56.80;;;;;;5131667;27;20185;-69
2022/04/24 08:03:15;;;;;;;2.70;2.00;;;13.10;59.70;;;;;;5132467;27;20239;-69
2022/04/24 08:05:45;;;;;;;4.43;2.17;;;13.20;59.40;;;;;;5134425;27;20553;-69
2022/04/24 08:08:14;;;;;;;4.37;2.20;;;13.10;58.50;;;;;;5134336;27;20458;-70
2022/04/24 08:10:43;;;;;;;3.33;2.07;;;13.20;58.00;;;;;;5133161;27;20795;-69
2022/04/24 08:13:09;;;;;;;2.50;1.90;;;13.00;56.00;;;;;;5131308;27;20431;-71
2022/04/24 08:15:37;;;;;;;3.10;1.70;;;12.90;58.80;;;;;;5130487;27;20798;-71
2022/04/24 08:18:04;;;;;;;8.53;2.17;;;13.10;55.90;;;;;;5132566;27;20467;-70
2022/04/24 08:20:31;;;;;;;12.83;4.20;;;13.00;57.60;;;;;;5130210;27;20418;-71
2022/04/24 08:22:59;;;;;;;3.77;2.30;;;13.00;59.30;;;;;;5134224;27;20999;-70
2022/04/24 08:25:26;;;;;;;3.43;2.00;;;13.10;58.40;;;;;;5134194;27;20442;-71
2022/04/24 08:27:53;;;;;;;4.80;2.07;;;12.80;60.80;;;;;;5134610;27;20549;-71
2022/04/24 08:30:20;;;;;;;2.97;1.83;;;13.00;58.30;;;;;;5135036;27;20921;-70
2022/04/24 08:32:47;;;;;;;3.33;2.10;;;13.20;56.60;;;;;;5133687;27;20458;-71
2022/04/24 08:35:14;;;;;;;6.30;2.60;;;13.30;57.50;;;;;;5132754;27;20434;-73
2022/04/24 08:37:41;;;;;;;4.70;2.37;;;13.20;62.10;;;;;;5134304;27;21001;-71
2022/04/24 08:40:09;;;;;;;2.97;2.27;;;13.40;61.10;;;;;;5134584;27;20430;-70
2022/04/24 08:42:35;;;;;;;3.40;2.30;;;13.60;55.10;;;;;;5115202;27;21011;-70
2022/04/24 08:45:02;;;;;;;2.60;2.20;;;13.70;55.90;;;;;;5134312;27;20440;-70
2022/04/24 08:47:28;;;;;;;8.53;2.13;;;13.70;55.30;;;;;;5133386;27;20483;-71
2022/04/24 08:49:56;;;;;;;3.83;2.37;;;13.70;55.40;;;;;;5133804;27;20415;-72
2022/04/24 08:52:23;;;;;;;3.03;1.97;;;13.80;52.10;;;;;;5130068;27;20419;-70
2022/04/24 08:54:51;;;;;;;3.27;2.47;;;13.70;52.00;;;;;;5132486;27;20435;-71
2022/04/24 08:57:17;;;;;;;4.50;2.53;;;13.80;53.60;;;;;;5131865;27;21031;-71
2022/04/24 08:59:44;;;;;;;3.60;2.37;;;13.60;55.70;;;;;;5132499;27;20526;-71
2022/04/24 09:02:10;;;;;;;4.17;2.10;;;13.80;53.50;;;;;;5132391;27;20467;-70
2022/04/24 09:04:37;;;;;;;4.80;2.20;;;13.60;54.10;;;;;;5131814;27;20513;-70
2022/04/24 09:07:08;;;;;;;6.70;2.00;;;13.30;57.60;;;;;;5131509;27;20439;-70
2022/04/24 09:09:42;;;;;;;3.60;2.23;;;13.30;58.90;;;;;;5131646;27;20657;-77
2022/04/24 09:12:13;;;;;;;3.13;2.00;;;13.20;59.60;;;;;;5129577;27;20484;-72
2022/04/24 09:14:39;;;;;;;5.37;1.83;;;13.50;54.20;;;;;;5131258;27;20431;-70
2022/04/24 09:17:16;;;;;;;3.40;2.03;;;13.80;52.30;;;;;;5129997;27;20465;-71
2022/04/24 09:19:42;;;;;;;3.63;2.20;;;14.10;52.80;;;;;;5131229;27;20922;-71
2022/04/24 09:22:09;;;;;;;3.63;2.20;;;13.60;52.40;;;;;;5131961;27;20461;-71
2022/04/24 09:24:46;;;;;;;3.93;2.20;;;13.70;52.00;;;;;;5132483;27;20435;-72
2022/04/24 09:27:22;;;;;;;4.57;2.10;;;13.70;56.00;;;;;;5131950;27;20433;-71
2022/04/24 09:29:59;;;;;;;3.30;2.20;;;13.60;56.90;;;;;;5117200;22;20503;-71
2022/04/24 09:32:26;;;;;;;4.00;2.60;;;13.80;52.90;;;;;;5108123;28;20435;-74
2022/04/24 09:34:53;;;;;;;4.93;2.80;;;14.10;53.60;;;;;;5104464;28;20423;-70
2022/04/24 09:37:20;;;;;;;6.10;3.80;;;13.60;56.00;;;;;;5104684;28;20431;-70
2022/04/24 09:39:46;;;;;;;5.17;3.50;;;13.40;53.70;;;;;;5094042;28;20444;-72
2022/04/24 09:42:17;;;;;;;3.60;2.60;;;13.00;60.20;;;;;;5099907;28;21021;-71
2022/04/24 09:44:51;;;;;;;4.33;2.50;;;13.10;55.00;;;;;;5098689;28;20432;-72
2022/04/24 09:47:26;;;;;;;14.63;3.10;;;12.80;58.60;;;;;;5089656;28;20431;-72
2022/04/24 09:49:53;;;;;;;3.00;2.30;;;12.90;59.40;;;;;;5066831;28;21024;-72
2022/04/24 09:52:23;;;;;;;4.90;2.60;;;12.50;60.80;;;;;;5092275;28;20925;-73
2022/04/24 09:54:53;;;;;;;3.50;2.40;;;12.80;64.20;;;;;;5079135;28;20986;-72
2022/04/24 09:57:22;;;;;;;4.60;2.37;;;13.00;61.20;;;;;;5076236;28;20434;-72
2022/04/24 09:59:48;;;;;;;3.50;2.30;;;13.20;57.70;;;;;;5072975;28;22479;-71
2022/04/24 10:02:18;;;;;;;2.77;2.10;;;13.00;59.10;;;;;;5086223;28;20460;-72
2022/04/24 10:04:45;;;;;;;2.90;2.00;;;13.00;61.30;;;;;;5082025;28;20434;-72
2022/04/24 10:07:13;;;;;;;3.17;2.33;;;13.10;58.20;;;;;;5077860;28;21026;-72
2022/04/24 10:09:41;;;;;;;3.13;2.27;;;13.40;58.80;;;;;;5076132;28;20473;-72
2022/04/24 10:12:18;;;;;;;3.30;2.30;;;13.60;57.30;;;;;;5076415;28;20433;-73
2022/04/24 10:14:56;;;;;;;3.30;2.50;;;13.90;55.60;;;;;;5081042;28;20423;-72
2022/04/24 10:17:33;;;;;;;3.63;2.37;;;14.10;54.30;;;;;;5083614;28;20428;-72
2022/04/24 10:20:30;;;;;;;4.00;3.20;;;14.60;54.70;;;;;;5088077;28;20433;-71
2022/04/24 10:22:57;;;;;;;4.90;3.10;;;14.60;51.60;;;;;;5079197;28;20458;-71
2022/04/24 10:25:37;;;;;;;6.17;3.07;;;14.80;49.30;;;;;;5079685;28;20428;-71
2022/04/24 10:28:20;;;;;;;4.80;3.30;;;14.40;49.90;;;;;;5083296;28;20507;-71
2022/04/24 10:30:59;;;;;;;6.30;3.97;;;14.50;52.80;;;;;;5082289;28;20430;-70
2022/04/24 10:33:28;;;;;;;5.93;4.00;;;14.50;52.80;;;;;;5083516;28;20656;-71
2022/04/24 10:35:59;;;;;;;5.60;3.97;;;14.60;53.70;;;;;;5070694;28;20432;-70
2022/04/24 10:38:26;;;;;;;5.90;4.07;;;14.20;53.60;;;;;;5083035;28;20874;-70
2022/04/24 10:41:06;;;;;;;6.30;4.37;;;14.20;58.40;;;;;;5079414;28;20416;-71
2022/04/24 10:43:35;;;;;;;6.53;3.90;;;14.50;55.40;;;;;;5087169;28;20518;-71
2022/04/24 10:46:01;;;;;;;4.43;3.27;;;14.60;52.80;;;;;;5079458;28;20570;-71
2022/04/24 10:48:35;;;;;;;10.93;4.30;;;14.50;52.80;;;;;;5093360;28;20488;-70
2022/04/24 10:51:01;;;;;;;4.90;3.50;;;14.70;51.10;;;;;;5088559;28;20423;-71
2022/04/24 10:53:27;;;;;;;5.20;3.60;;;14.90;52.40;;;;;;5088098;28;20471;-71
2022/04/24 10:56:04;;;;;;;4.30;3.70;;;15.00;53.20;;;;;;5088644;28;20218;-70
2022/04/24 10:58:30;;;;;;;5.93;3.50;;;14.80;53.00;;;;;;5095255;28;20972;-70
2022/04/24 11:01:09;;;;;;;6.03;4.00;;;14.90;55.40;;;;;;5099411;28;20427;-71
2022/04/24 11:03:40;;;;;;;8.77;3.70;;;15.00;55.20;;;;;;5088113;28;20175;-71
2022/04/24 11:06:17;;;;;;;5.10;3.60;;;15.30;52.30;;;;;;5099619;28;20429;-70
2022/04/24 11:08:43;;;;;;;7.53;3.63;;;15.50;50.00;;;;;;5098034;28;20856;-73
2022/04/24 11:11:15;;;;;;;7.23;4.83;;;15.30;50.50;;;;;;5091902;28;20424;-71
2022/04/24 11:13:42;;;;;;;7.37;4.20;;;15.40;51.80;;;;;;5093900;28;20419;-70
2022/04/24 11:16:08;;;;;;;7.83;4.23;;;15.70;51.30;;;;;;5093307;28;20428;-71
2022/04/24 11:18:36;;;;;;;6.07;4.20;;;15.80;51.90;;;;;;5090993;28;20433;-70
2022/04/24 11:21:07;;;;;;;6.53;4.10;;;15.90;50.80;;;;;;5078048;28;20585;-71
2022/04/24 11:23:37;;;;;;;7.83;4.70;;;16.00;51.80;;;;;;5083070;28;20417;-71
2022/04/24 11:26:09;;;;;;;6.17;3.47;;;15.70;52.50;;;;;;5089289;28;20434;-70
2022/04/24 11:28:46;;;;;;;4.70;3.30;;;15.80;52.20;;;;;;5072811;28;20449;-70
2022/04/24 11:31:20;;;;;;;7.90;2.90;;;15.30;51.90;;;;;;5084550;28;20951;-70
2022/04/24 11:33:57;;;;;;;7.17;3.43;;;14.60;56.80;;;;;;5080051;28;20513;-70
2022/04/24 11:36:25;;;;;;;9.93;3.30;;;14.20;63.10;;;;;;5077255;28;20459;-70
2022/04/24 11:38:51;;;;;;;5.40;3.17;;;14.80;55.80;;;;;;5094444;28;20868;-70
2022/04/24 11:41:20;;;;;;;5.87;3.00;;;14.50;58.10;;;;;;5075229;28;20425;-70
2022/04/24 11:43:46;;;;;;;7.80;3.07;;;14.40;62.60;;;;;;5079904;28;20420;-70
2022/04/24 11:51:41;;;;;;;3.70;2.70;;;13.70;65.00;;;;;;5082295;28;20830;-70
2022/04/24 11:54:11;;;;;;;3.33;2.43;;;13.40;65.60;;;;;;5091150;28;20422;-70
2022/04/24 11:56:37;;;;;;;5.10;2.80;;;13.60;64.00;;;;;;5086712;28;20258;-70
2022/04/24 11:59:18;;;;;;;6.40;2.80;;;13.40;65.20;;;;;;5078995;28;20498;-71
2022/04/24 12:01:53;;;;;;;4.30;3.20;;;14.40;69.30;;;;;;5074465;28;20550;-70
2022/04/24 12:04:20;;;;;;;4.87;2.97;;;13.70;68.00;;;;;;5074186;28;20416;-71
2022/04/24 12:06:47;;;;;;;4.17;3.10;;;14.30;60.50;;;;;;5093816;28;20418;-70
2022/04/24 12:09:14;;;;;;;5.27;2.70;;;13.70;62.30;;;;;;5077827;28;20439;-70
2022/04/24 12:11:40;;;;;;;3.33;2.90;;;14.00;59.70;;;;;;5076655;28;20427;-70
2022/04/24 12:14:12;;;;;;;4.57;2.70;;;13.60;62.40;;;;;;5078770;28;20420;-70
2022/04/24 12:16:47;;;;;;;4.40;2.73;;;13.40;63.60;;;;;;5089823;28;20430;-70
2022/04/24 12:19:17;;;;;;;5.27;2.80;;;14.00;69.50;;;;;;5080573;28;20453;-71
2022/04/24 12:21:50;;;;;;;4.23;2.40;;;14.30;63.70;;;;;;5084998;28;20961;-71
2022/04/24 12:24:17;;;;;;;3.83;2.40;;;14.50;57.30;;;;;;5085334;28;20416;-70
2022/04/24 12:26:50;;;;;;;5.57;2.83;;;14.30;59.40;;;;;;5082863;28;20522;-70
2022/04/24 12:29:17;;;;;;;3.87;2.10;;;13.60;68.10;;;;;;5073515;28;20456;-70
2022/04/24 12:31:43;;;;;;;3.23;2.33;;;13.70;60.60;;;;;;5073381;28;20494;-70
2022/04/24 12:34:09;;;;;;;3.50;2.13;;;13.60;63.50;;;;;;5081872;28;20438;-70
2022/04/24 12:36:35;;;;;;;5.10;2.70;;;13.60;65.40;;;;;;5073607;28;20520;-69
2022/04/24 12:39:06;;;;;;;4.60;3.53;;;13.80;60.50;;;;;;5073861;28;20539;-70
2022/04/24 12:41:33;;;;;;;4.57;2.27;;;13.70;65.90;;;;;;5080383;28;20231;-70
2022/04/24 12:44:06;;;;;;;4.83;3.30;;;13.20;67.60;;;;;;5085011;28;20424;-70
2022/04/24 12:46:34;;;;;;;7.33;4.63;;;13.50;70.90;;;;;;5076919;28;20451;-70
2022/04/24 12:49:00;;;;;;;6.13;2.77;;;13.90;59.20;;;;;;5081096;28;20524;-70